Loging...

KPDC, Korea Polar Data Center

Korea Polar Data Center Scientific observations and results from Antarctica shall
be exchanged and made freely available

Browse

Popular Keywords

Search 28,375 data out of 28,375

Metadata Search Results1
No. Title Reg. Date
1 [KOPRI-KPDC-00001430]Sea ice carbon data for the East Siberian Sea, Arctic Ocean in 2017 2020-04-02
2 [KOPRI-KPDC-00001429]Temporal variation of phytoplankton in the surface water of Marian Cove, King George Island, Antarctica, 2019 2020-03-30
3 [KOPRI-KPDC-00001428]Temporal variation of marine phytoplankton in the surface water of the Antarctic Jang Bogo Station in Terra Nova Bay, October 2018- December 2019 2020-03-26
4 [KOPRI-KPDC-00001396]Wind data on ARAON DaDis for Arctic cruise, 2019 2020-03-04
5 [KOPRI-KPDC-00001409]ARA10C Multi-Channel Seismic Survey Data 2020-03-04
6 [KOPRI-KPDC-00000792]Air temperature, air humidity, PAR, substrate temperature, and substrate humidity data from Barton Peninsular in King George Island collected in 2016 2020-03-03
7 [KOPRI-KPDC-00001241]Phytoplankton abundance in the Amundsen Sea in 2017/2018 2020-03-03
8 [KOPRI-KOREAMET-00000068]Elephant Moraine 13002 2020-02-26
9 [KOPRI-KOREAMET-00000131]Reckling Peak 14005 2020-02-26
10 [KOPRI-KOREAMET-00000145]Elephant Moraine 14013 2020-02-26
11 [KOPRI-KOREAMET-00000019]Thiel Mountains 07014 2020-02-26
12 [KOPRI-KOREAMET-00000181]Elephant Moraine 14049 2020-02-26
13 [KOPRI-KOREAMET-00000188]Elephant Moraine 14056 2020-02-26
14 [KOPRI-KOREAMET-00000206]Elephant Moraine 14074 2020-02-26
15 [KOPRI-KPDC-00001075]Antarctic Marine Benthic Invertebrate Specimens in Bransfield Strait, Maxwell Bay and Marian Cove Collected from ARAON (April, 2018) 2020-02-17
16 [KOPRI-KPDC-00001074]Antarctic Marine Benthic Invertebrate Specimens in Marian Cove by SCUBA diving (2017-2018) 2020-02-17
17 [KOPRI-KPDC-00000446]Antarctic Marine Benthic Invertebrate Specimens in Marian Cove (2009-2014) 2020-02-17
18 [KOPRI-KPDC-00001427]Ship-borne radiosonde observation data over the Arctic Ocean in the 2018 Araon summer expedition(ARA09B,ARA09C) 2020-02-03
19 [KOPRI-KPDC-00001426]Ship-borne radiosonde observation data over the Arctic Ocean in the 2017 Araon summer expedition(ARA08B,ARA08C) 2020-02-03
20 [KOPRI-KPDC-00001425]Ship-borne radiosonde observation data over the Arctic Ocean in the 2016 Araon summer expedition(ARA07B,ARA07C) 2020-02-03
21 [KOPRI-KPDC-00000601]Depth profiles of temperature and salinity in the Ross Sea, Antarctica, in December 2015 2020-01-28
22 [KOPRI-KPDC-00000749]NIWA oceanographic mooring data in the Drygalski Ice Tongue North 2016 2020-01-28
23 [KOPRI-KPDC-00000906]NIWA oceanographic deep mooring data in the Drygalski Ice Tongue 2017 2020-01-28
24 [KOPRI-KPDC-00000898]NIWA oceanographic mooring data in the Drygalski Ice Tongue North 2017 2020-01-28
25 [KOPRI-KPDC-00001060]NIWA oceanographic mooring data in the Drygalski Ice Tongue North 2015 2020-01-28
26 [KOPRI-KPDC-00000896]LADCP data observed in the Terra Nova Bay, Ross Sea, in March, 2018 (ANA08C) 2020-01-28
27 [KOPRI-KPDC-00001065]LADCP data observed in the Terra Nova Bay, Ross Sea, in January, 2017 (ANA07C) 2020-01-28
28 [KOPRI-KPDC-00001061]LADCP data observed in the Terra Nova Bay, Ross Sea, in December, 2015 (ANA06A) 2020-01-28
29 [KOPRI-KPDC-00001064]LADCP data observed in the Terra Nova Bay, Ross Sea, in December, 2014 (ANA05A) 2020-01-28
30 [KOPRI-KPDC-00000895]CTD profiles observed in the Terra Nova Bay, Ross Sea, in March, 2018 (ANA08C) 2020-01-28
31 [KOPRI-KPDC-00001063]CTD profiles observed in the Terra Nova Bay, Ross Sea, in January, 2017 (ANA07C) 2020-01-28
32 [KOPRI-KPDC-00001062]CTD profiles observed in the Terra Nova Bay, Ross Sea, in December, 2014 (ANA05A) 2020-01-28
33 [KOPRI-ANTAGEN-00000008]Mirounga leonina 2020-01-26
34 [KOPRI-KPDC-00001422]Surface observation of CH4 in the atmosphere and ocean 2020-01-09
35 [KOPRI-KPDC-00001424]Manganese nodule samples in the East siberian shelf (2019 ARA10C cruise) 2019-12-18
36 [KOPRI-KPDC-00001423]2019 Arctic Araon Cruise (ARA10C) sediment cores (multiple, gravity, and box cores) 2019-12-16
37 [KOPRI-KPDC-00001421]Hydrocasting observation of conductivity, temperature, and depth (CTD) 2019-12-16
38 [KOPRI-KPDC-00001420]Marine heat flow in Chukchi Plateau and East Siberian shelf areas on Arctic ocean 2019-12-13
39 [KOPRI-KPDC-00001224]ANA09B Seismic Sparker Survey Lines 2019-12-13
40 [KOPRI-KPDC-00001408]ARA10C Sub-bottom profiler Survey Data 2019-12-13
41 [KOPRI-KPDC-00001419]Wind data on ARAON DaDis for Antarctic cruise, 2018/2019 2019-12-11
42 [KOPRI-KVH-00002390]Monostroma hariotii Gain (KOPRI-CH3393) 2019-11-26
43 [KOPRI-KVH-00002240]Monostroma hariotii Gain (KOPRI-CH3292) 2019-11-26
44 [KOPRI-KVH-00002388]Monostroma hariotii Gain (KOPRI-CH3391) 2019-11-26
45 [KOPRI-KVH-00002387]Monostroma hariotii Gain (KOPRI-CH3390) 2019-11-26
46 [KOPRI-KVH-00002386]Monostroma hariotii Gain (KOPRI-CH3389) 2019-11-26
47 [KOPRI-KVH-00002385]Monostroma hariotii Gain (KOPRI-CH3388) 2019-11-26
48 [KOPRI-KVH-00002384]Monostroma hariotii Gain (KOPRI-CH3387) 2019-11-26
49 [KOPRI-KVH-00002383]Monostroma hariotii Gain (KOPRI-CH3386) 2019-11-26
50 [KOPRI-KVH-00002241]Monostroma hariotii Gain (KOPRI-CH3293) 2019-11-26
51 [KOPRI-KVH-00002239]Monostroma hariotii Gain (KOPRI-CH3291) 2019-11-26
52 [KOPRI-KVH-00002238]Monostroma hariotii Gain (KOPRI-CH3290) 2019-11-26
53 [KOPRI-KVH-00002236]Monostroma hariotii Gain (KOPRI-CH3288) 2019-11-26
54 [KOPRI-KVH-00002206]Monostroma hariotii Gain (KOPRI-CH3258) 2019-11-26
55 [KOPRI-KVH-00002205]Monostroma hariotii Gain (KOPRI-CH3257) 2019-11-26
56 [KOPRI-KVH-00002204]Monostroma hariotii Gain (KOPRI-CH3256) 2019-11-26
57 [KOPRI-KVH-00002190]Monostroma hariotii on Kallymenia antarctica Gain (KOPRI-CH3241) 2019-11-26
58 [KOPRI-KVH-00002189]Monostroma hariotii Gain (KOPRI-CH3240) 2019-11-26
59 [KOPRI-KVH-00002188]Monostroma hariotii Gain (KOPRI-CH3239) 2019-11-26
60 [KOPRI-KVH-00002187]Monostroma hariotii Gain (KOPRI-CH3238) 2019-11-26
61 [KOPRI-KVH-00002186]Monostroma hariotii on Iridaea cordata Gain (KOPRI-CH3237) 2019-11-26
62 [KOPRI-KVH-00002441]Monostroma hariotii Gain (KOPRI-CH3226) 2019-11-26
63 [KOPRI-KVH-00002440]Monostroma hariotii Gain (KOPRI-CH3225) 2019-11-26
64 [KOPRI-KVH-00002439]Monostroma hariotii Gain (KOPRI-CH3224) 2019-11-26
65 [KOPRI-KVH-00002438]Monostroma hariotii Gain (KOPRI-CH3223) 2019-11-26
66 [KOPRI-KVH-00002437]Monostroma hariotii Gain (KOPRI-CH3222) 2019-11-26
67 [KOPRI-KVH-00002436]Monostroma hariotii Gain (KOPRI-CH3221) 2019-11-26
68 [KOPRI-KVH-00002435]Monostroma hariotii Gain (KOPRI-CH3220) 2019-11-26
69 [KOPRI-KVH-00002434]Monostroma hariotii Gain (KOPRI-CH3219) 2019-11-26
70 [KOPRI-KVH-00002433]Monostroma hariotii Gain (KOPRI-CH3218) 2019-11-26
71 [KOPRI-KVH-00002432]Monostroma hariotii Gain (KOPRI-CH3217) 2019-11-26
72 [KOPRI-KVH-00002431]Monostroma hariotii Gain (KOPRI-CH3216) 2019-11-26
73 [KOPRI-KOREAMET-00000163]Elephant Moraine 14031 2019-11-20
74 [KOPRI-KVH-00002237]Monostroma hariotii Gain (KOPRI-CH3289) 2019-11-20
75 [KOPRI-KVH-00002391]Monostroma hariotii Gain (KOPRI-CH3394) 2019-11-20
76 [KOPRI-KVH-00002412]Gigartina skottsbergii Setchell et Gardner (KOPRI-CH3446) 2019-11-20
77 [KOPRI-KVH-00002585]Desmarestia anceps R.L. Moe & P.C. Silver (KOPRI-CH3566) 2019-11-20
78 [KOPRI-KVH-00002525]Monostroma hariotii Gain (KOPRI-CH3577) 2019-11-20
79 [KOPRI-KVH-00002526]Monostroma hariotii Gain (KOPRI-CH3578) 2019-11-20
80 [KOPRI-KVH-00002606]Monostroma hariotii Gain (KOPRI-CH3641) 2019-11-20
81 [KOPRI-KVH-00002602]Phaeurus antarcticus Skottsberg (KOPRI-CH3640) 2019-11-20
82 [KOPRI-KVH-00002413]Gigartina skottsbergii Setchell et Gardner (KOPRI-CH3447) 2019-11-19
83 [KOPRI-KVH-00002414]Gigartina skottsbergii Setchell et Gardner (KOPRI-CH3448) 2019-11-19
84 [KOPRI-KVH-00002487]Gigartina skottsbergii Setchell et Gardner (KOPRI-CH3534) 2019-11-19
85 [KOPRI-KVH-00002587]Kallymenia antarctica Hariot (KOPRI-CH3568) 2019-11-19
86 [KOPRI-KVH-00002593]Phyllophora antarctica Skottsberg (KOPRI-CH3633) 2019-11-19
87 [KOPRI-KVH-00002594]Phyllophora antarctica Skottsberg (KOPRI-CH3634) 2019-11-19
88 [KOPRI-KVH-00002595]Phyllophora antarctica Skottsberg (KOPRI-CH3635) 2019-11-19
89 [KOPRI-KVH-00002596]Phyllophora antarctica Skottsberg (KOPRI-CH3636) 2019-11-19
90 [KOPRI-KVH-00002597]Phyllophora antarctica Skottsberg (KOPRI-CH3637) 2019-11-19
91 [KOPRI-KVH-00002598]Phyllophora antarctica Skottsberg (KOPRI-CH3638) 2019-11-19
92 [KOPRI-KVH-00002599]Phyllophora antarctica Skottsberg (KOPRI-CH3639) 2019-11-19
93 [KOPRI-KVH-00002590]Iridaea cordata (Turner) Bory de Saint-Vincent (KOPRI-CH3630) 2019-11-19
94 [KOPRI-KPDC-00001407]ARA10C Multibeam Survey 2019-11-19
95 [KOPRI-KPDC-00001418]Eddy covariance data at DASAN Station in 2019 2019-11-13
96 [KOPRI-KPDC-00001417]Eddy covariance data of Russia permafrost site in 2018 2019-11-13
97 [KOPRI-KPDC-00001416]Eddy covariance data of Alaska permafrost site in 2019 2019-11-13
98 [KOPRI-KPDC-00001415]Eddy covariance data of Greenland permafrost site in 2018 2019-11-13
99 [KOPRI-KPDC-00001414]Eddy covariance data of Canada permafrost site in 2018 2019-11-13
100 [KOPRI-KPDC-00001413]NDVI data collected from climate manipulation plots in Cambridge Bay, Canada in 2019 2019-11-13